Have a Safe July 4th! 

Flight Track Log - Related Links

Times and Time Zones

All times are in EDT time to prevent confusion due to time zone crossing. See the ASQ5738 flight status page for this flight to view local times or setup timezone preferences in your user account.

Time Position Orientation Groundspeed Altitude Reporting Facility
EDT Latitude Longitude Course Direction KTS MPH feet Rate Location/Type
Thu 12:29:30 PM 39.0000 -77.4333 123° Southeast 211 243 2,700  Level Potomac TRACON
Thu 12:30:30 PM 39.0667 -77.4500 349° North 257 296 5,800 3,050 Climbing Potomac TRACON
Thu 12:31:30 PM 39.1333 -77.4000 30° Northeast 281 323 8,800 2,231 Climbing Potomac TRACON
Thu 12:32:00 PM 38.5927 -77.6236 123° Southeast  Level Estimated
Thu 12:32:31 PM 39.1500 -77.3000 78° East 331 381 10,300  Level Potomac TRACON
Thu 12:33:00 PM 38.5039 -77.6642 128° Southeast  Level Estimated
Thu 12:33:31 PM 39.1167 -77.1833 110° East 336 387 13,000  Level Potomac TRACON
Thu 12:34:00 PM 38.4152 -77.7048 123° Southeast  Level Estimated
Thu 12:34:31 PM 39.0667 -77.0833 123° Southeast 328 377 15,400  Level Potomac TRACON
Thu 12:35:32 PM 39.0167 -77.0000 128° Southeast 308 354 17,300 1,636 Climbing Potomac TRACON
Thu 12:36:32 PM 38.9333 -76.9500 155° Southeast 326 375 18,700 583 Climbing Potomac TRACON
Thu 12:38:27 PM 38.7669 -76.8589 157° South 378 435 19,000 103 Climbing Washington Center
Thu 12:39:27 PM 38.6656 -76.7961 154° Southeast 394 453 19,000 300 Level Washington Center
Thu 12:40:27 PM 38.5619 -76.7361 156° South 404 465 19,600 1,050 Climbing Washington Center
Thu 12:41:27 PM 38.4556 -76.7158 172° South 392 451 21,100 1,500 Climbing Washington Center
Thu 12:42:27 PM 38.3558 -76.7036 175° South 381 438 22,600 1,150 Climbing Washington Center
Thu 12:43:27 PM 38.2578 -76.6864 172° South 370 426 23,400 1,500 Climbing Washington Center
Thu 12:44:27 PM 38.1581 -76.6717 173° South 370 426 25,600 1,600 Climbing Washington Center
Thu 12:45:27 PM 38.0581 -76.6597 175° South 365 420 26,600 1,300 Climbing Washington Center
Thu 12:46:27 PM 37.9664 -76.6481 174° South 354 407 28,200 1,200 Climbing Washington Center
Thu 12:47:27 PM 37.8764 -76.6572 185° South 342 394 29,000 700 Climbing Washington Center
Thu 12:48:27 PM 37.7825 -76.6692 186° South 337 388 29,600 850 Climbing Washington Center
Thu 12:49:27 PM 37.6886 -76.6808 186° South 337 388 30,700 1,150 Climbing Washington Center
Thu 12:50:27 PM 37.5967 -76.6928 186° South 337 388 31,900 650 Climbing Washington Center
Thu 12:51:27 PM 37.5047 -76.7019 185° South 337 388 32,000 50 Climbing Washington Center
Thu 12:52:27 PM 37.4086 -76.7239 190° South 342 394 32,000  Level Washington Center
Thu 12:53:27 PM 37.3144 -76.7669 200° South 353 406 32,000  Level Washington Center
Thu 12:54:27 PM 37.2181 -76.8072 198° South 367 422 32,000  Level Washington Center
Thu 12:55:27 PM 37.1153 -76.8497 198° South 372 428 32,000  Level Washington Center
Thu 12:56:27 PM 37.0128 -76.8925 198° South 377 434 32,000  Level Washington Center
Thu 12:57:27 PM 36.9100 -76.9350 198° South 389 448 32,000  Level Washington Center
Thu 12:58:27 PM 36.8053 -76.9797 199° South 394 453 32,000  Level Washington Center
Thu 12:59:27 PM 36.7003 -77.0244 199° South 399 459 32,000  Level Washington Center
Thu 01:00:27 PM 36.5914 -77.0664 197° South 404 465 32,000  Level Washington Center
Thu 01:01:27 PM 36.4844 -77.1111 199° South 404 465 32,000  Level Washington Center
Thu 01:02:27 PM 36.3794 -77.1553 199° South 409 471 32,000  Level Washington Center
Thu 01:03:27 PM 36.2725 -77.1969 197° South 409 471 32,000  Level Washington Center
Thu 01:04:27 PM 36.1614 -77.2436 199° South 409 471 32,000  Level Washington Center
Thu 01:05:27 PM 36.0586 -77.2853 198° South 404 465 32,000  Level Washington Center
Thu 01:06:27 PM 35.9472 -77.3289 198° South 409 471 32,000  Level Washington Center
Thu 01:07:27 PM 35.8381 -77.3753 199° South 415 478 32,000  Level Washington Center
Thu 01:08:27 PM 35.7250 -77.4164 196° South 421 484 32,000  Level Washington Center
Thu 01:09:27 PM 35.6178 -77.4625 199° South 421 484 32,000  Level Washington Center
Thu 01:11:27 PM 35.4275 -77.6083 212° Southwest 410 472 32,000  Level Washington Center
Thu 01:12:27 PM 35.3406 -77.6953 219° Southwest 410 472 32,000  Level Washington Center
Thu 01:13:27 PM 35.2575 -77.7822 221° Southwest 410 472 32,000  Level Washington Center
Thu 01:14:27 PM 35.1706 -77.8686 219° Southwest 404 465 32,000  Level Washington Center
Thu 01:15:27 PM 35.0833 -77.9550 219° Southwest 409 471 32,000  Level Washington Center
Thu 01:16:27 PM 34.9958 -78.0439 220° Southwest 409 471 32,000  Level Washington Center
Thu 01:17:27 PM 34.9106 -78.1297 220° Southwest 409 471 32,000 -218 Level Washington Center
Thu 01:19:40 PM 34.7217 -78.3283 221° Southwest 411 473 31,300 -466 Descending Jacksonville Center
Thu 01:20:40 PM 34.6292 -78.4192 219° Southwest 423 487 30,500 -800 Descending Jacksonville Center
Thu 01:21:40 PM 34.5361 -78.5022 216° Southwest 423 487 29,700 -800 Descending Jacksonville Center
Thu 01:22:40 PM 34.4436 -78.6000 221° Southwest 434 499 28,900 -800 Descending Jacksonville Center
Thu 01:23:40 PM 34.3486 -78.6925 219° Southwest 439 505 28,100 -800 Descending Jacksonville Center
Thu 01:24:40 PM 34.2617 -78.7797 220° Southwest 439 505 27,300 -800 Descending Jacksonville Center
Thu 01:25:40 PM 34.1706 -78.8669 218° Southwest 434 499 26,500 -850 Descending Jacksonville Center
Thu 01:26:40 PM 34.0836 -78.9536 220° Southwest 423 487 25,600 -1,400 Descending Jacksonville Center
Thu 01:27:40 PM 33.9967 -79.0378 219° Southwest 418 481 23,700 -1,850 Descending Jacksonville Center
Thu 01:28:40 PM 33.9075 -79.1242 219° Southwest 418 481 21,900 -1,800 Descending Jacksonville Center
Thu 01:29:40 PM 33.8242 -79.2028 218° Southwest 412 474 20,100 -1,800 Descending Jacksonville Center
Thu 01:30:40 PM 33.7389 -79.2789 217° Southwest 401 461 18,300 -1,750 Descending Jacksonville Center
Thu 01:31:40 PM 33.6447 -79.3450 210° Southwest 377 434 16,600 -1,750 Descending Jacksonville Center
Thu 01:32:40 PM 33.5589 -79.4108 213° Southwest 371 427 14,800 -1,800 Descending Jacksonville Center
Thu 01:33:40 PM 33.4731 -79.4739 212° Southwest 365 420 13,000 -1,800 Descending Jacksonville Center
Thu 01:34:40 PM 33.3911 -79.5367 213° Southwest 365 420 11,200 -1,050 Descending Jacksonville Center
Thu 01:35:40 PM 33.3092 -79.5969 212° Southwest 349 402 10,900 -303 Descending Jacksonville Center
Thu 01:36:39 PM 33.2417 -79.6492 213° Southwest 327 376 10,600 -1,100 Descending Jacksonville Center
Thu 01:37:40 PM 33.1911 -79.7106 225° Southwest 288 331 8,700 -1,736 Descending Jacksonville Center
Thu 01:38:40 PM 33.1575 -79.7861 242° Southwest 259 298 7,100 -1,850 Descending Jacksonville Center
Thu 01:39:40 PM 33.1217 -79.8592 240° Southwest 259 298 5,000 -2,050 Descending Jacksonville Center
Thu 01:40:40 PM 33.0858 -79.9325 240° Southwest 264 304 3,000 -2,000 Descending Jacksonville Center

Login

Don't have an account? Register now (free) for customized features, flight alerts, and more!